Time;durP1;ratioP1;P1;durP2;ratioP2;P2;SDS_P1;SDS_P2;PMS_P1;PMS_P2;Temp;Humidity;BMP_temperature;BMP_pressure;BME280_temperature;BME280_humidity;BME280_pressure;Samples;Min_cycle;Max_cycle;Signal;HPM_P1;HPM_P2
2021/09/19 00:02:24;;;;;;;4.17;3.87;;;11.60;99.90;;;;;;6321939;28;20203;-71
2021/09/19 00:05:26;;;;;;;4.13;3.73;;;11.50;99.90;;;;;;6322291;28;20650;-71
2021/09/19 00:08:29;;;;;;;4.30;3.90;;;11.40;99.90;;;;;;6322230;28;20200;-71
2021/09/19 00:11:31;;;;;;;5.57;4.37;;;11.40;99.90;;;;;;6321940;28;20674;-71
2021/09/19 00:14:36;;;;;;;4.57;4.20;;;11.30;99.90;;;;;;6317742;28;20178;-71
2021/09/19 00:17:38;;;;;;;4.10;3.80;;;11.20;99.90;;;;;;6309357;28;20243;-71
2021/09/19 00:20:40;;;;;;;4.13;3.83;;;11.20;99.90;;;;;;6313102;28;20616;-71
2021/09/19 00:23:43;;;;;;;5.33;3.83;;;11.10;99.90;;;;;;6302521;28;20206;-71
2021/09/19 00:26:45;;;;;;;3.80;3.50;;;11.10;99.90;;;;;;6321478;28;20227;-71
2021/09/19 00:29:47;;;;;;;4.33;4.03;;;11.00;99.90;;;;;;6321632;28;20187;-71
2021/09/19 00:32:50;;;;;;;5.77;4.10;;;11.00;99.90;;;;;;6321500;28;20198;-71
2021/09/19 00:35:55;;;;;;;4.20;3.80;;;11.00;99.90;;;;;;6321446;28;20190;-71
2021/09/19 00:38:58;;;;;;;4.47;4.07;;;11.00;99.90;;;;;;6321014;28;20207;-71
2021/09/19 00:42:01;;;;;;;8.27;4.33;;;10.90;99.90;;;;;;6304545;28;20206;-71
2021/09/19 00:45:07;;;;;;;5.83;4.47;;;10.90;99.90;;;;;;6322248;28;20199;-71
2021/09/19 00:48:09;;;;;;;5.27;4.17;;;10.90;99.90;;;;;;6320900;28;20219;-71
2021/09/19 00:51:11;;;;;;;4.87;4.40;;;10.90;99.90;;;;;;6311543;28;20188;-71
2021/09/19 00:54:15;;;;;;;4.60;4.20;;;10.90;99.90;;;;;;6297298;28;20202;-71
2021/09/19 00:57:18;;;;;;;5.10;4.57;;;10.90;99.90;;;;;;6320511;28;20196;-71
2021/09/19 01:00:26;;;;;;;5.00;4.27;;;10.80;99.90;;;;;;6320795;28;20194;-71
2021/09/19 01:03:29;;;;;;;4.77;4.20;;;10.80;99.90;;;;;;6322068;28;20182;-71
2021/09/19 01:06:31;;;;;;;8.43;4.57;;;10.80;99.90;;;;;;6320760;28;20202;-71
2021/09/19 01:09:38;;;;;;;5.47;4.43;;;10.80;99.90;;;;;;6321840;28;20239;-71
2021/09/19 01:12:41;;;;;;;6.77;4.43;;;10.80;99.90;;;;;;6320815;28;20273;-71
2021/09/19 01:15:44;;;;;;;5.13;4.73;;;10.80;99.90;;;;;;6317970;28;20191;-71
2021/09/19 01:18:48;;;;;;;5.63;4.77;;;10.80;99.90;;;;;;6321580;28;20187;-71
2021/09/19 01:21:53;;;;;;;5.03;4.63;;;10.70;99.90;;;;;;6307361;28;20199;-71
2021/09/19 01:24:55;;;;;;;5.83;5.20;;;10.70;99.90;;;;;;6321544;28;20301;-71
2021/09/19 01:27:58;;;;;;;6.17;5.17;;;10.70;99.90;;;;;;6320138;28;20295;-71
2021/09/19 01:31:01;;;;;;;5.43;4.80;;;10.70;99.90;;;;;;6319917;28;20190;-71
2021/09/19 01:34:03;;;;;;;7.03;5.97;;;10.70;99.90;;;;;;6321162;28;20647;-71
2021/09/19 01:37:07;;;;;;;6.70;6.10;;;10.70;99.90;;;;;;6319810;28;20541;-71
2021/09/19 01:40:10;;;;;;;7.10;6.40;;;10.70;99.90;;;;;;6320009;28;20205;-71
2021/09/19 01:43:13;;;;;;;7.00;6.17;;;10.70;99.90;;;;;;6319674;28;20208;-71
2021/09/19 01:46:15;;;;;;;9.07;6.57;;;10.70;99.90;;;;;;6320623;28;20211;-71
2021/09/19 01:49:18;;;;;;;9.47;6.33;;;10.70;99.90;;;;;;6321009;28;20183;-71
2021/09/19 01:52:22;;;;;;;7.13;6.43;;;10.70;99.90;;;;;;6298145;28;20341;-71
2021/09/19 01:55:24;;;;;;;6.53;5.93;;;10.80;99.90;;;;;;6320903;28;20324;-71
2021/09/19 01:58:26;;;;;;;8.17;6.47;;;10.80;99.90;;;;;;6320584;28;20676;-71
2021/09/19 02:01:30;;;;;;;8.67;6.00;;;10.80;99.90;;;;;;6319201;28;20227;-71
2021/09/19 02:04:34;;;;;;;5.80;5.30;;;10.80;99.90;;;;;;6319410;28;20198;-71
2021/09/19 02:07:38;;;;;;;6.07;5.47;;;10.80;99.90;;;;;;6320254;28;20204;-71
2021/09/19 02:10:41;;;;;;;7.23;5.57;;;10.80;99.90;;;;;;6318420;28;20201;-71
2021/09/19 02:13:45;;;;;;;6.43;5.77;;;10.80;99.90;;;;;;6320046;28;20292;-71
2021/09/19 02:16:47;;;;;;;6.67;5.37;;;10.80;99.90;;;;;;6301262;28;20225;-71
2021/09/19 02:19:49;;;;;;;6.63;5.43;;;10.80;99.90;;;;;;6318680;28;20190;-71
2021/09/19 02:22:52;;;;;;;6.13;5.53;;;10.70;99.90;;;;;;6294769;28;20211;-71
2021/09/19 02:25:54;;;;;;;9.43;6.80;;;10.70;99.90;;;;;;6317960;28;20236;-71
2021/09/19 02:28:56;;;;;;;7.17;6.47;;;10.70;99.90;;;;;;6319792;28;20646;-71
2021/09/19 02:31:59;;;;;;;7.03;6.33;;;10.60;99.90;;;;;;6320000;28;20194;-71
2021/09/19 02:35:02;;;;;;;7.50;6.80;;;10.70;99.90;;;;;;6320108;28;20307;-71
2021/09/19 02:38:04;;;;;;;8.07;5.87;;;10.60;99.90;;;;;;6318446;28;20221;-71
2021/09/19 02:41:06;;;;;;;7.73;6.60;;;10.60;99.90;;;;;;6318528;28;20194;-71
2021/09/19 02:44:08;;;;;;;7.90;6.60;;;10.60;99.90;;;;;;6319630;28;20587;-71
2021/09/19 02:47:11;;;;;;;8.77;6.50;;;10.60;99.90;;;;;;6319565;28;20234;-71
2021/09/19 02:50:20;;;;;;;12.17;7.13;;;10.60;99.90;;;;;;6313585;28;20282;-71
2021/09/19 02:53:22;;;;;;;7.60;6.80;;;10.60;99.90;;;;;;6296354;28;20219;-72
2021/09/19 02:56:24;;;;;;;7.03;6.43;;;10.50;99.90;;;;;;6312447;28;20195;-71
2021/09/19 02:59:28;;;;;;;6.00;5.40;;;10.50;99.90;;;;;;6317947;28;20679;-71
2021/09/19 03:02:30;;;;;;;5.37;4.87;;;10.50;99.90;;;;;;6307324;28;20325;-71
2021/09/19 03:05:33;;;;;;;5.23;4.70;;;10.50;99.90;;;;;;6302572;28;20228;-71
2021/09/19 03:08:35;;;;;;;5.27;4.77;;;10.40;99.90;;;;;;6317884;28;20585;-71
2021/09/19 03:11:37;;;;;;;5.50;4.90;;;10.40;99.90;;;;;;6318060;28;20197;-72
2021/09/19 03:14:39;;;;;;;8.17;6.17;;;10.40;99.90;;;;;;6313048;28;20650;-71
2021/09/19 03:17:42;;;;;;;7.90;6.33;;;10.40;99.90;;;;;;6316448;28;20959;-71
2021/09/19 03:20:44;;;;;;;6.57;5.97;;;10.40;99.90;;;;;;6308360;28;20194;-72
2021/09/19 03:23:46;;;;;;;7.10;6.40;;;10.40;99.90;;;;;;6310361;28;20221;-71
2021/09/19 03:26:48;;;;;;;7.13;6.50;;;10.40;99.90;;;;;;6317661;28;20724;-71
2021/09/19 03:29:51;;;;;;;8.03;7.23;;;10.30;99.90;;;;;;6318724;28;20195;-72
2021/09/19 03:32:53;;;;;;;7.50;6.80;;;10.30;99.90;;;;;;6317543;28;20186;-71
2021/09/19 03:35:55;;;;;;;7.43;6.73;;;10.30;99.90;;;;;;6318925;28;20182;-72
2021/09/19 03:38:57;;;;;;;7.63;6.93;;;10.20;99.90;;;;;;6317547;28;20205;-72
2021/09/19 03:42:00;;;;;;;7.33;6.63;;;10.30;99.90;;;;;;6318818;28;20198;-72
2021/09/19 03:45:03;;;;;;;7.00;6.40;;;10.20;99.90;;;;;;6318408;28;20274;-72
2021/09/19 03:48:08;;;;;;;6.97;6.30;;;10.30;99.90;;;;;;6318581;28;20208;-72
2021/09/19 03:51:10;;;;;;;7.10;6.50;;;10.20;99.90;;;;;;6305618;28;20190;-72
2021/09/19 03:54:12;;;;;;;9.13;7.80;;;10.20;99.90;;;;;;6304397;28;20665;-72
2021/09/19 03:57:15;;;;;;;7.37;6.70;;;10.20;99.90;;;;;;6315936;28;20290;-71
2021/09/19 04:00:17;;;;;;;7.53;6.73;;;10.30;99.90;;;;;;6318502;28;20190;-72
2021/09/19 04:03:20;;;;;;;7.00;6.40;;;10.30;99.90;;;;;;6317015;28;20648;-71
2021/09/19 04:06:22;;;;;;;6.80;6.20;;;10.30;99.90;;;;;;6318348;28;20187;-72
2021/09/19 04:09:25;;;;;;;8.67;7.77;;;10.40;99.90;;;;;;6318358;28;20625;-72
2021/09/19 04:12:27;;;;;;;8.30;7.43;;;10.40;99.90;;;;;;6318271;28;20618;-72
2021/09/19 04:15:29;;;;;;;9.57;7.93;;;10.50;99.90;;;;;;6305205;28;20229;-72
2021/09/19 04:18:32;;;;;;;11.07;7.93;;;10.50;99.90;;;;;;6306694;28;20550;-72
2021/09/19 04:21:35;;;;;;;7.53;6.83;;;10.60;99.90;;;;;;6312086;28;20205;-72
2021/09/19 04:24:37;;;;;;;7.27;6.57;;;10.60;99.90;;;;;;6299848;28;20234;-71
2021/09/19 04:27:39;;;;;;;8.43;6.77;;;10.60;99.90;;;;;;6318002;28;20209;-72
2021/09/19 04:30:42;;;;;;;7.70;6.90;;;10.60;99.90;;;;;;6317113;28;20182;-71
2021/09/19 04:33:44;;;;;;;9.57;8.57;;;10.70;99.90;;;;;;6321723;28;20780;-72
2021/09/19 04:36:46;;;;;;;8.80;6.87;;;10.70;99.90;;;;;;6322505;28;20315;-72
2021/09/19 04:39:49;;;;;;;7.00;6.40;;;10.70;99.90;;;;;;6322650;28;20194;-71
2021/09/19 04:42:51;;;;;;;6.40;5.80;;;10.80;99.90;;;;;;6321063;28;20190;-71
2021/09/19 04:45:53;;;;;;;6.73;6.13;;;10.80;99.90;;;;;;6321268;28;20603;-71
2021/09/19 04:48:56;;;;;;;8.97;7.03;;;10.80;99.90;;;;;;6322423;28;20283;-72
2021/09/19 04:51:59;;;;;;;9.80;8.80;;;10.80;99.90;;;;;;6307070;28;20187;-71
2021/09/19 04:55:01;;;;;;;13.83;11.03;;;10.80;99.90;;;;;;6322339;28;20184;-72
2021/09/19 04:58:04;;;;;;;11.27;10.07;;;10.90;99.90;;;;;;6304235;28;20277;-72
2021/09/19 05:01:06;;;;;;;11.87;10.60;;;11.00;99.90;;;;;;6320924;28;20290;-71
2021/09/19 05:04:08;;;;;;;12.07;10.43;;;11.00;99.90;;;;;;6322012;28;20199;-72
2021/09/19 05:07:11;;;;;;;14.43;12.33;;;11.00;99.90;;;;;;6320612;28;20239;-71
2021/09/19 05:10:13;;;;;;;12.80;11.37;;;11.10;99.90;;;;;;6321887;28;20189;-71
2021/09/19 05:13:15;;;;;;;11.87;10.67;;;11.10;99.90;;;;;;6321627;28;20557;-72
2021/09/19 05:16:18;;;;;;;9.37;8.30;;;11.20;99.90;;;;;;6308863;28;20642;-72
2021/09/19 05:19:21;;;;;;;10.00;8.97;;;11.20;99.90;;;;;;6320438;28;20190;-72
2021/09/19 05:22:23;;;;;;;15.87;11.20;;;11.30;99.90;;;;;;6297509;28;20192;-71
2021/09/19 05:25:25;;;;;;;11.90;10.70;;;11.30;99.90;;;;;;6271715;28;20228;-72
2021/09/19 05:28:27;;;;;;;12.83;11.53;;;11.30;99.90;;;;;;6314299;28;20203;-71
2021/09/19 05:31:30;;;;;;;14.63;11.27;;;11.40;99.90;;;;;;6320290;28;20186;-71
2021/09/19 05:34:32;;;;;;;12.40;10.60;;;11.40;99.90;;;;;;6321260;28;20186;-71
2021/09/19 05:37:34;;;;;;;12.33;10.33;;;11.40;99.90;;;;;;6321257;28;20270;-71
2021/09/19 05:40:38;;;;;;;11.87;10.53;;;11.40;99.90;;;;;;6319741;28;20201;-71
2021/09/19 05:43:40;;;;;;;12.23;10.90;;;11.50;99.90;;;;;;6319507;28;20197;-71
2021/09/19 05:46:42;;;;;;;13.47;10.13;;;11.40;99.90;;;;;;6319769;28;20268;-71
2021/09/19 05:49:44;;;;;;;11.20;10.00;;;11.50;99.90;;;;;;6319995;28;20631;-71
2021/09/19 05:52:46;;;;;;;14.57;10.20;;;11.50;99.90;;;;;;6302416;28;20571;-72
2021/09/19 05:55:49;;;;;;;12.53;11.33;;;11.60;99.90;;;;;;6315792;28;20566;-71
2021/09/19 05:58:51;;;;;;;11.93;10.47;;;11.70;99.90;;;;;;6302395;28;20203;-71
2021/09/19 06:01:53;;;;;;;10.83;9.73;;;11.80;99.90;;;;;;6320568;28;20207;-71
2021/09/19 06:04:56;;;;;;;11.63;10.43;;;12.00;99.90;;;;;;6319405;28;20199;-71
2021/09/19 06:07:58;;;;;;;10.63;9.37;;;12.10;99.90;;;;;;6319117;28;20574;-72
2021/09/19 06:11:00;;;;;;;11.23;10.13;;;12.30;99.90;;;;;;6318781;28;20213;-72
2021/09/19 06:14:02;;;;;;;10.63;9.50;;;12.50;99.90;;;;;;6319236;28;20632;-72
2021/09/19 06:17:05;;;;;;;9.17;8.27;;;12.70;99.90;;;;;;6286190;28;20186;-72
2021/09/19 06:20:08;;;;;;;9.60;8.70;;;12.80;99.90;;;;;;6308038;28;20205;-72
2021/09/19 06:23:10;;;;;;;9.13;8.33;;;12.90;99.90;;;;;;6311999;28;20602;-72
2021/09/19 06:26:12;;;;;;;8.37;7.47;;;13.00;99.90;;;;;;6318482;28;20557;-72
2021/09/19 06:29:14;;;;;;;8.27;7.20;;;13.10;99.90;;;;;;6319949;28;20198;-72
2021/09/19 06:32:17;;;;;;;8.20;7.50;;;13.20;99.90;;;;;;6319992;28;20319;-73
2021/09/19 06:35:19;;;;;;;7.50;6.80;;;13.30;99.90;;;;;;6319978;28;20178;-72
2021/09/19 06:38:21;;;;;;;7.87;7.07;;;13.40;99.90;;;;;;6318591;28;20196;-72
2021/09/19 06:41:24;;;;;;;8.03;7.33;;;13.50;99.90;;;;;;6319790;28;20186;-72
2021/09/19 06:44:27;;;;;;;7.33;6.60;;;13.60;99.90;;;;;;6318482;28;20228;-72
2021/09/19 06:47:29;;;;;;;6.67;6.07;;;13.70;99.90;;;;;;6318230;28;20205;-72
2021/09/19 06:50:31;;;;;;;7.27;6.57;;;13.80;99.90;;;;;;6294108;28;20202;-72
2021/09/19 06:53:37;;;;;;;8.77;6.30;;;13.80;99.90;;;;;;6306094;28;20186;-72
2021/09/19 06:56:39;;;;;;;6.77;6.17;;;13.90;99.90;;;;;;6317851;28;20183;-72
2021/09/19 06:59:41;;;;;;;6.43;5.90;;;13.90;99.90;;;;;;6318389;28;20338;-72
2021/09/19 07:02:44;;;;;;;6.10;5.53;;;14.00;99.90;;;;;;6319399;28;20440;-71
2021/09/19 07:05:47;;;;;;;6.60;5.97;;;14.10;99.90;;;;;;6319449;28;20201;-72
2021/09/19 07:08:49;;;;;;;5.47;4.97;;;14.20;99.90;;;;;;6318994;28;20304;-72
2021/09/19 07:11:52;;;;;;;5.80;5.30;;;14.20;99.90;;;;;;6317800;28;20208;-72
2021/09/19 07:14:54;;;;;;;5.57;5.07;;;14.30;99.90;;;;;;6310987;28;20190;-72
2021/09/19 07:17:56;;;;;;;5.57;5.07;;;14.30;99.90;;;;;;6306156;28;20194;-72
2021/09/19 07:20:59;;;;;;;5.93;5.43;;;14.30;99.90;;;;;;6318144;28;20197;-72
2021/09/19 07:24:01;;;;;;;6.20;5.60;;;14.40;99.90;;;;;;6317575;28;20241;-72
2021/09/19 07:27:04;;;;;;;5.50;5.00;;;14.40;99.90;;;;;;6317180;28;20201;-72
2021/09/19 07:30:07;;;;;;;6.40;4.63;;;14.60;99.90;;;;;;6318094;28;20178;-72
2021/09/19 07:33:10;;;;;;;5.33;4.83;;;14.70;99.90;;;;;;6317428;28;20182;-72
2021/09/19 07:36:12;;;;;;;5.30;4.80;;;14.90;99.90;;;;;;6317323;28;20226;-72
2021/09/19 07:39:15;;;;;;;5.30;4.50;;;15.00;99.90;;;;;;6318517;28;20199;-72
2021/09/19 07:42:17;;;;;;;4.83;4.43;;;15.10;99.90;;;;;;6318568;28;20186;-72
2021/09/19 07:45:20;;;;;;;4.50;4.10;;;15.20;99.90;;;;;;6318548;28;20683;-72
2021/09/19 07:48:23;;;;;;;4.60;3.73;;;15.30;99.90;;;;;;6318559;28;20206;-72
2021/09/19 07:51:26;;;;;;;4.60;4.20;;;15.50;99.90;;;;;;6303924;28;20237;-72
2021/09/19 07:54:28;;;;;;;4.30;3.90;;;15.50;99.90;;;;;;6292096;28;20469;-72
2021/09/19 07:57:31;;;;;;;3.97;3.57;;;15.50;99.90;;;;;;6292213;28;20212;-72
2021/09/19 08:00:33;;;;;;;4.27;3.87;;;15.60;99.90;;;;;;6268629;28;20191;-72
2021/09/19 08:03:36;;;;;;;4.60;3.40;;;15.60;99.90;;;;;;6296659;28;20205;-72
2021/09/19 08:06:38;;;;;;;3.27;2.97;;;15.60;99.90;;;;;;6311961;28;20289;-72
2021/09/19 08:09:40;;;;;;;3.13;2.93;;;15.70;99.90;;;;;;6322953;28;20202;-72
2021/09/19 08:12:46;;;;;;;2.90;2.70;;;15.90;99.90;;;;;;6323116;28;20193;-71
2021/09/19 08:15:49;;;;;;;3.67;3.33;;;16.10;99.90;;;;;;6316337;28;20196;-72
2021/09/19 08:18:51;;;;;;;3.37;3.17;;;16.30;99.90;;;;;;6321580;28;20194;-71
2021/09/19 08:21:54;;;;;;;3.47;3.17;;;16.40;99.90;;;;;;6304739;28;20241;-71
2021/09/19 08:24:56;;;;;;;3.00;2.80;;;16.30;99.90;;;;;;6321311;28;20724;-71
2021/09/19 08:27:58;;;;;;;2.60;2.40;;;16.30;99.90;;;;;;6322658;28;20209;-71
2021/09/19 08:31:00;;;;;;;2.70;2.50;;;16.30;99.90;;;;;;6321287;28;20192;-71
2021/09/19 08:34:03;;;;;;;2.50;2.30;;;16.30;99.90;;;;;;6321124;28;20569;-71
2021/09/19 08:37:05;;;;;;;2.40;2.20;;;16.30;99.90;;;;;;6321288;28;20200;-72
2021/09/19 08:40:10;;;;;;;2.33;2.13;;;16.30;99.90;;;;;;6322381;28;20193;-71
2021/09/19 08:43:15;;;;;;;3.37;2.20;;;16.40;99.90;;;;;;6322429;28;20208;-71
2021/09/19 08:46:22;;;;;;;2.13;2.03;;;16.40;99.90;;;;;;6322552;28;20575;-71
2021/09/19 08:49:25;;;;;;;2.17;2.03;;;16.40;99.90;;;;;;6303771;28;20215;-71
2021/09/19 08:52:27;;;;;;;3.10;2.80;;;16.50;99.90;;;;;;6297357;28;20194;-71
2021/09/19 08:55:29;;;;;;;2.40;2.20;;;16.50;99.90;;;;;;6302679;28;20190;-71
2021/09/19 08:58:32;;;;;;;2.10;2.00;;;16.50;99.90;;;;;;6317049;28;20543;-71
2021/09/19 09:01:36;;;;;;;1.70;1.60;;;16.60;99.90;;;;;;6320573;28;20197;-71
2021/09/19 09:04:40;;;;;;;2.20;2.00;;;16.60;99.90;;;;;;6321833;28;20243;-71
2021/09/19 09:07:44;;;;;;;2.27;2.07;;;16.70;99.90;;;;;;6321789;28;20198;-71
2021/09/19 09:10:50;;;;;;;2.13;1.90;;;16.90;99.90;;;;;;6320256;28;20190;-71
2021/09/19 09:13:52;;;;;;;2.30;2.10;;;17.10;99.90;;;;;;6320234;28;20190;-71
2021/09/19 09:17:16;;;;;;;1.93;1.70;;;17.30;99.90;;;;;;6297062;28;20183;-71
2021/09/19 09:20:18;;;;;;;2.40;1.63;;;17.30;99.90;;;;;;6314916;28;20217;-72
2021/09/19 09:23:32;;;;;;;2.30;2.10;;;17.20;99.90;;;;;;6320085;28;20280;-71
2021/09/19 09:26:40;;;;;;;2.07;1.83;;;17.30;99.90;;;;;;6320141;28;20202;-72
2021/09/19 09:30:06;;;;;;;2.30;2.00;;;17.50;99.90;;;;;;6319971;28;20220;-72
2021/09/19 09:33:08;;;;;;;1.77;1.67;;;18.30;99.90;;;;;;6321106;28;20189;-72
2021/09/19 09:36:10;;;;;;;1.53;1.43;;;18.90;99.90;;;;;;6319759;28;20707;-72
2021/09/19 09:39:39;;;;;;;2.23;1.50;;;19.00;99.00;;;;;;6319480;28;20202;-72
2021/09/19 09:43:01;;;;;;;1.87;1.73;;;18.50;99.10;;;;;;6318565;28;20623;-72
2021/09/19 09:46:12;;;;;;;1.53;1.43;;;18.40;99.00;;;;;;6320653;28;20319;-72
2021/09/19 09:49:14;;;;;;;1.17;1.07;;;18.60;99.90;;;;;;6321355;28;20202;-72
2021/09/19 09:52:27;;;;;;;2.17;1.80;;;19.10;99.20;;;;;;6307596;28;20209;-72
2021/09/19 09:55:29;;;;;;;1.70;1.60;;;19.50;99.00;;;;;;6320740;28;20187;-72
2021/09/19 09:58:32;;;;;;;2.23;1.50;;;19.90;97.10;;;;;;6320413;28;20194;-71
2021/09/19 10:01:34;;;;;;;1.50;1.40;;;20.20;97.30;;;;;;6321516;28;20200;-72
2021/09/19 10:04:37;;;;;;;1.40;1.30;;;19.90;96.40;;;;;;6326219;28;20186;-72
2021/09/19 10:07:44;;;;;;;1.67;1.57;;;19.30;97.10;;;;;;6306804;28;20198;-71
2021/09/19 10:10:46;;;;;;;1.40;1.30;;;18.80;97.80;;;;;;6324685;28;20285;-71
2021/09/19 10:13:49;;;;;;;1.73;1.50;;;18.60;98.40;;;;;;6326765;28;20657;-72
2021/09/19 10:16:52;;;;;;;1.40;1.30;;;18.30;98.30;;;;;;6313669;28;20202;-72
2021/09/19 10:19:55;;;;;;;1.70;1.60;;;18.20;99.50;;;;;;6303576;28;20251;-72
2021/09/19 10:23:20;;;;;;;1.50;1.40;;;18.00;99.10;;;;;;6301221;28;20221;-71
2021/09/19 10:26:23;;;;;;;1.63;1.27;;;17.90;99.40;;;;;;6322669;28;20681;-72
2021/09/19 10:29:32;;;;;;;1.53;1.43;;;17.80;99.70;;;;;;6319351;28;20308;-72
2021/09/19 10:32:42;;;;;;;1.70;1.60;;;17.90;99.80;;;;;;6321924;28;20189;-72
2021/09/19 10:35:49;;;;;;;1.60;1.50;;;18.10;99.90;;;;;;6321455;28;20178;-72
2021/09/19 10:38:52;;;;;;;1.57;1.47;;;18.30;99.90;;;;;;6318248;28;20204;-72
2021/09/19 10:42:10;;;;;;;1.50;1.40;;;18.30;99.90;;;;;;6319562;28;20304;-72
2021/09/19 10:45:14;;;;;;;1.87;1.63;;;18.30;99.90;;;;;;6318004;28;20669;-71
2021/09/19 10:48:32;;;;;;;1.63;1.53;;;18.20;99.70;;;;;;6318100;28;20213;-71
2021/09/19 10:51:34;;;;;;;1.53;1.43;;;17.90;99.50;;;;;;6312838;28;20266;-71
2021/09/19 10:54:49;;;;;;;2.13;1.57;;;17.70;99.80;;;;;;6304135;28;20185;-72
2021/09/19 10:57:55;;;;;;;1.43;1.33;;;17.60;99.90;;;;;;6317865;28;20220;-71
2021/09/19 11:01:19;;;;;;;1.20;1.10;;;17.70;99.90;;;;;;6317608;28;20201;-72
2021/09/19 11:04:33;;;;;;;1.30;1.20;;;17.80;99.90;;;;;;6319206;28;20816;-72
2021/09/19 11:07:36;;;;;;;1.20;1.20;;;17.90;99.60;;;;;;6317710;28;20190;-71
2021/09/19 11:10:56;;;;;;;1.77;1.30;;;18.00;99.90;;;;;;6318953;28;20206;-72
2021/09/19 11:14:04;;;;;;;1.20;1.10;;;18.20;99.90;;;;;;6318771;28;20166;-71
2021/09/19 11:17:22;;;;;;;1.00;1.00;;;18.30;99.40;;;;;;6269522;28;20655;-71
2021/09/19 11:20:31;;;;;;;1.37;1.10;;;18.40;99.50;;;;;;6311987;28;20639;-71
2021/09/19 11:23:33;;;;;;;0.80;0.80;;;18.40;99.30;;;;;;6314602;28;20222;-71
2021/09/19 11:26:41;;;;;;;0.93;0.80;;;18.50;98.40;;;;;;6317520;28;20197;-71
2021/09/19 11:29:44;;;;;;;1.00;0.80;;;18.50;97.30;;;;;;5401198;28;10000413;-72
2021/09/19 11:32:46;;;;;;;1.30;1.20;;;18.50;97.80;;;;;;6267433;28;20199;-72
2021/09/19 11:35:49;;;;;;;7.30;6.10;;;18.70;97.30;;;;;;6265253;28;20191;-71
2021/09/19 11:38:52;;;;;;;1.30;1.20;;;18.80;97.20;;;;;;6267285;28;20198;-71
2021/09/19 11:41:55;;;;;;;0.90;0.90;;;18.70;95.30;;;;;;6269946;28;20207;-72
2021/09/19 11:44:57;;;;;;;1.17;0.70;;;18.90;96.00;;;;;;6272519;28;20503;-72
2021/09/19 11:48:00;;;;;;;5.80;5.30;;;19.00;94.70;;;;;;6274003;28;20274;-72
2021/09/19 11:51:04;;;;;;;4.23;3.83;;;19.00;95.80;;;;;;6260531;28;20589;-71
2021/09/19 11:54:10;;;;;;;0.87;0.87;;;19.10;96.40;;;;;;6266535;28;20199;-72
2021/09/19 11:57:14;;;;;;;0.60;0.60;;;19.20;95.60;;;;;;6272453;28;20286;-71
2021/09/19 12:00:16;;;;;;;0.47;0.47;;;19.40;95.40;;;;;;6273219;28;20187;-71
2021/09/19 12:03:19;;;;;;;0.70;0.70;;;19.40;95.20;;;;;;6272264;28;20210;-71
2021/09/19 12:06:22;;;;;;;0.73;0.60;;;19.30;95.50;;;;;;6271864;28;20191;-72
2021/09/19 12:09:25;;;;;;;0.63;0.63;;;19.10;95.40;;;;;;6271690;28;20215;-71
2021/09/19 12:12:30;;;;;;;1.00;0.60;;;18.80;94.70;;;;;;6272116;28;20188;-72
2021/09/19 12:15:32;;;;;;;0.60;0.60;;;18.60;95.70;;;;;;6261557;28;20227;-71
2021/09/19 12:18:40;;;;;;;0.67;0.67;;;18.60;95.90;;;;;;6283846;28;20199;-71
2021/09/19 12:21:56;;;;;;;0.60;0.60;;;18.70;96.30;;;;;;6254295;28;20208;-72
2021/09/19 12:25:05;;;;;;;0.70;0.70;;;18.70;95.20;;;;;;6263330;28;20240;-71
2021/09/19 12:28:07;;;;;;;1.40;0.50;;;18.50;95.50;;;;;;6261991;28;20298;-71
2021/09/19 12:31:13;;;;;;;0.70;0.70;;;18.40;95.80;;;;;;6258596;28;20288;-71
2021/09/19 12:34:17;;;;;;;0.60;0.60;;;18.30;95.30;;;;;;6253003;28;20229;-71
2021/09/19 12:37:20;;;;;;;2.87;0.70;;;18.10;95.50;;;;;;6271221;28;20194;-71
2021/09/19 12:40:24;;;;;;;0.60;0.60;;;18.10;95.30;;;;;;6247036;28;20191;-71
2021/09/19 12:43:29;;;;;;;0.80;0.80;;;18.10;95.80;;;;;;6271106;28;20658;-71
2021/09/19 12:46:32;;;;;;;1.10;0.60;;;18.10;96.20;;;;;;6246493;28;20188;-72
2021/09/19 12:49:44;;;;;;;1.03;0.60;;;18.20;97.00;;;;;;6247912;28;20211;-71
2021/09/19 12:52:46;;;;;;;0.60;0.60;;;18.20;96.00;;;;;;6252003;28;20195;-71
2021/09/19 12:55:49;;;;;;;0.80;0.80;;;18.10;95.90;;;;;;6272286;28;20591;-71
2021/09/19 12:58:51;;;;;;;0.87;0.80;;;18.00;96.20;;;;;;6258748;28;20191;-71
2021/09/19 13:01:53;;;;;;;0.80;0.77;;;18.00;96.50;;;;;;6270599;28;20195;-71
2021/09/19 13:04:56;;;;;;;0.60;0.60;;;18.00;96.30;;;;;;6270480;28;20249;-71
2021/09/19 13:08:00;;;;;;;1.33;0.80;;;17.80;96.00;;;;;;6272197;28;20191;-71
2021/09/19 13:11:02;;;;;;;0.67;0.67;;;17.80;96.00;;;;;;6272612;28;20207;-71
2021/09/19 13:14:04;;;;;;;1.03;0.63;;;17.70;96.20;;;;;;6270089;28;20199;-71
2021/09/19 13:17:07;;;;;;;0.70;0.70;;;17.60;96.20;;;;;;6267160;28;20682;-71
2021/09/19 13:20:10;;;;;;;0.60;0.60;;;17.60;96.50;;;;;;6267255;28;20199;-71
2021/09/19 13:23:12;;;;;;;0.60;0.60;;;17.50;96.20;;;;;;6259916;28;20220;-71
2021/09/19 13:26:14;;;;;;;0.70;0.70;;;17.40;96.00;;;;;;6270127;28;20239;-71
2021/09/19 13:29:19;;;;;;;1.00;0.80;;;17.30;96.10;;;;;;6269878;28;20199;-71
2021/09/19 13:32:21;;;;;;;0.70;0.70;;;17.30;96.00;;;;;;6271250;28;20179;-71
2021/09/19 13:35:23;;;;;;;0.63;0.63;;;17.20;96.20;;;;;;6271112;28;20192;-71
2021/09/19 13:38:26;;;;;;;0.50;0.50;;;17.20;96.60;;;;;;6269890;28;20219;-71
2021/09/19 13:41:28;;;;;;;0.70;0.70;;;17.20;96.40;;;;;;6270967;28;20321;-71
2021/09/19 13:44:33;;;;;;;0.70;0.50;;;17.20;96.20;;;;;;6270958;28;20199;-71
2021/09/19 13:47:36;;;;;;;2.10;0.90;;;17.30;96.10;;;;;;6270979;28;20237;-71
2021/09/19 13:50:39;;;;;;;4.07;3.37;;;17.20;96.10;;;;;;6262217;28;20207;-71
2021/09/19 13:53:42;;;;;;;2.17;2.03;;;17.20;96.40;;;;;;6253482;28;20191;-71
2021/09/19 13:56:48;;;;;;;1.00;0.83;;;17.10;96.20;;;;;;6270579;28;20192;-71
2021/09/19 13:59:50;;;;;;;1.17;1.03;;;17.10;96.10;;;;;;6269396;28;20195;-71
2021/09/19 14:02:52;;;;;;;0.70;0.70;;;17.00;96.20;;;;;;6252887;28;20274;-71
2021/09/19 14:05:56;;;;;;;0.80;0.80;;;16.90;96.40;;;;;;6269509;28;20204;-71
2021/09/19 14:08:59;;;;;;;0.63;0.63;;;17.00;96.60;;;;;;6268867;28;20207;-71
2021/09/19 14:12:01;;;;;;;2.20;0.80;;;17.00;96.60;;;;;;6270558;28;20273;-71
2021/09/19 14:15:04;;;;;;;0.77;0.77;;;17.00;96.90;;;;;;6262096;28;20235;-71
2021/09/19 14:18:06;;;;;;;0.70;0.70;;;17.00;96.60;;;;;;6271877;28;20199;-71
2021/09/19 14:21:08;;;;;;;0.93;0.70;;;16.90;96.60;;;;;;6265619;28;20206;-71
2021/09/19 14:24:10;;;;;;;1.03;0.50;;;16.90;96.80;;;;;;6269687;28;20302;-71
2021/09/19 14:27:13;;;;;;;0.80;0.80;;;16.80;96.10;;;;;;6269044;28;20201;-71
2021/09/19 14:30:15;;;;;;;0.50;0.50;;;16.70;95.80;;;;;;6268834;28;20214;-71
2021/09/19 14:33:17;;;;;;;0.70;0.60;;;16.70;96.10;;;;;;6269807;28;20203;-71
2021/09/19 14:36:20;;;;;;;0.60;0.60;;;16.70;96.40;;;;;;6268343;28;20199;-71
2021/09/19 14:39:24;;;;;;;0.73;0.70;;;16.70;96.40;;;;;;6269627;28;20649;-71
2021/09/19 14:42:27;;;;;;;0.73;0.73;;;16.60;96.40;;;;;;6268094;28;20711;-71
2021/09/19 14:45:29;;;;;;;1.20;0.70;;;16.60;96.60;;;;;;6268290;28;20537;-71
2021/09/19 14:48:31;;;;;;;1.70;0.90;;;16.40;96.40;;;;;;6269381;28;20203;-71
2021/09/19 14:51:33;;;;;;;0.97;0.73;;;16.30;96.70;;;;;;6255818;28;20216;-71
2021/09/19 14:54:36;;;;;;;1.17;0.70;;;16.30;96.80;;;;;;6268319;28;20206;-71
2021/09/19 14:57:38;;;;;;;0.60;0.60;;;16.30;97.00;;;;;;6269131;28;20714;-71
2021/09/19 15:00:48;;;;;;;0.70;0.70;;;16.20;96.90;;;;;;6269246;28;20274;-71
2021/09/19 15:03:52;;;;;;;0.80;0.80;;;16.30;97.40;;;;;;6268942;28;20661;-71
2021/09/19 15:06:56;;;;;;;0.97;0.70;;;16.30;97.10;;;;;;6269146;28;20213;-71
2021/09/19 15:09:58;;;;;;;0.50;0.50;;;16.20;97.00;;;;;;6268991;28;20203;-71
2021/09/19 15:13:01;;;;;;;1.13;0.70;;;16.20;97.30;;;;;;6268806;28;20530;-71
2021/09/19 15:16:04;;;;;;;0.70;0.70;;;16.20;97.50;;;;;;6256102;28;20209;-71
2021/09/19 15:19:07;;;;;;;0.67;0.60;;;16.30;97.20;;;;;;6267481;28;20187;-71
2021/09/19 15:22:09;;;;;;;0.90;0.90;;;16.20;97.20;;;;;;6248162;28;20223;-71
2021/09/19 15:25:13;;;;;;;1.10;1.00;;;16.30;97.40;;;;;;6267228;28;20235;-71
2021/09/19 15:28:17;;;;;;;2.60;1.00;;;16.20;97.30;;;;;;6268848;28;20277;-71
2021/09/19 15:31:20;;;;;;;1.30;1.20;;;16.20;97.50;;;;;;6268586;28;20211;-71
2021/09/19 15:34:26;;;;;;;1.53;1.43;;;16.20;97.50;;;;;;6267412;28;20202;-71
2021/09/19 15:37:28;;;;;;;1.40;1.30;;;16.00;96.80;;;;;;6268695;28;20564;-71
2021/09/19 15:40:30;;;;;;;1.60;1.47;;;15.90;97.30;;;;;;6267353;28;20348;-71
2021/09/19 15:43:33;;;;;;;2.37;2.00;;;15.80;97.50;;;;;;6263460;28;20192;-71
2021/09/19 15:46:36;;;;;;;1.50;1.40;;;15.80;97.90;;;;;;5341866;28;10000765;-71
2021/09/19 15:49:43;;;;;;;1.40;1.30;;;15.80;97.80;;;;;;6268264;28;20207;-71
2021/09/19 15:52:46;;;;;;;1.70;1.60;;;15.80;98.00;;;;;;6247767;28;20187;-71
2021/09/19 15:55:48;;;;;;;1.37;1.27;;;15.70;98.40;;;;;;6261182;28;20194;-71